Terminal Aerodrome Forecast
Issued by NWS

Home | Current Version | Previous Version | Text Only | Print | Product List | Glossary On
Versions: 1 2 3 4 5 6 7 8 9 10 11 12
000
FTUS43 KGRB 031735
TAFCWA
TAF
KCWA 031735Z 0318/0418 18011KT P6SM SCT090 BKN200
     FM040500 15004KT 6SM -SHRA BKN020 OVC060
      TEMPO 0405/0409 3SM -TSRA OVC012CB
     FM040900 17003KT 5SM BR VCSH OVC009
     FM041500 22005KT P6SM SCT020=

USA.gov is the U.S. government's official web portal to all federal, state and local government web resources and services.